Time;durP1;ratioP1;P1;durP2;ratioP2;P2;SDS_P1;SDS_P2;PMS_P1;PMS_P2;Temp;Humidity;BMP_temperature;BMP_pressure;BME280_temperature;BME280_humidity;BME280_pressure;Samples;Min_cycle;Max_cycle;Signal;HPM_P1;HPM_P2
2024/01/05 00:00:55;;;;;;;10.10;1.90;;;;;;;26.16;28.27;98023.41;7391459;19;20011;-47
2024/01/05 00:03:21;;;;;;;5.05;3.03;;;;;;;27.35;27.63;98020.59;7392040;19;20465;-47
2024/01/05 00:05:47;;;;;;;11.52;4.45;;;;;;;27.35;27.80;98026.31;7394451;19;20015;-47
2024/01/05 00:08:13;;;;;;;3.13;1.85;;;;;;;26.18;28.48;98022.81;7391115;19;20457;-47
2024/01/05 00:10:39;;;;;;;7.65;3.03;;;;;;;26.75;27.75;98015.25;7388397;19;20017;-47
2024/01/05 00:13:06;;;;;;;6.78;3.97;;;;;;;25.83;28.31;98025.78;7391210;19;20019;-48
2024/01/05 00:15:32;;;;;;;2.42;1.92;;;;;;;25.50;28.73;98023.16;7393212;19;20007;-48
2024/01/05 00:17:58;;;;;;;6.07;2.22;;;;;;;25.13;29.43;98028.03;7391022;19;20027;-52
2024/01/05 00:20:24;;;;;;;9.60;3.03;;;;;;;25.48;29.20;98025.91;7389829;19;20015;-47
2024/01/05 00:22:50;;;;;;;3.95;1.20;;;;;;;25.23;29.34;98028.63;7390957;19;20501;-47
2024/01/05 00:25:21;;;;;;;7.15;3.70;;;;;;;25.34;29.23;98032.81;7392898;19;20025;-47
2024/01/05 00:27:50;;;;;;;12.38;4.95;;;;;;;27.10;27.76;98029.25;7392547;19;20018;-47
2024/01/05 00:30:16;;;;;;;3.63;2.22;;;;;;;26.50;28.37;98033.16;7395779;19;20011;-47
2024/01/05 00:32:42;;;;;;;6.28;3.33;;;;;;;25.59;28.98;98030.06;7397337;19;20432;-47
2024/01/05 00:35:08;;;;;;;4.30;2.47;;;;;;;25.44;29.13;98033.47;7399884;19;20019;-47
2024/01/05 00:37:34;;;;;;;8.43;2.50;;;;;;;25.24;28.98;98030.13;7397190;19;20010;-47
2024/01/05 00:40:01;;;;;;;11.07;3.08;;;;;;;25.19;29.50;98034.06;7397937;19;20073;-47
2024/01/05 00:42:27;;;;;;;6.90;3.20;;;;;;;25.01;29.33;98029.41;7397070;19;20037;-47
2024/01/05 00:44:53;;;;;;;11.77;4.63;;;;;;;25.01;29.32;98035.09;7401516;19;20098;-48
2024/01/05 00:47:19;;;;;;;15.07;4.30;;;;;;;24.95;29.16;98037.56;7402831;19;20030;-47
2024/01/05 00:49:45;;;;;;;5.55;2.72;;;;;;;25.07;28.99;98032.59;7396790;19;20038;-47
2024/01/05 00:52:12;;;;;;;1.42;1.13;;;;;;;24.95;29.20;98029.75;7397884;19;20014;-47
2024/01/05 00:57:19;;;;;;;4.00;3.10;;;;;;;24.71;29.33;98031.09;7392808;19;20019;-82
2024/01/05 00:59:45;;;;;;;3.15;1.80;;;;;;;24.90;29.27;98036.59;7391858;19;20002;-82
2024/01/05 01:02:11;;;;;;;1.52;1.40;;;;;;;24.72;29.76;98043.97;7392342;19;20029;-82
2024/01/05 01:04:37;;;;;;;2.38;1.38;;;;;;;24.72;29.48;98046.81;7388433;19;20017;-82
2024/01/05 01:07:04;;;;;;;2.38;1.83;;;;;;;25.10;29.03;98043.50;7390344;19;20074;-84
2024/01/05 01:09:30;;;;;;;9.20;3.03;;;;;;;25.17;29.28;98045.34;7393352;19;20021;-83
2024/01/05 01:11:56;;;;;;;2.67;2.17;;;;;;;25.06;29.03;98043.25;7392650;19;20511;-82
2024/01/05 01:14:22;;;;;;;7.45;2.38;;;;;;;25.11;28.78;98042.16;7392880;19;20021;-82
2024/01/05 01:16:49;;;;;;;12.60;3.40;;;;;;;24.69;29.59;98045.19;7393639;19;20027;-83
2024/01/05 01:19:15;;;;;;;17.77;3.53;;;;;;;24.58;29.47;98043.09;7394013;19;20482;-82
2024/01/05 01:21:41;;;;;;;3.60;2.63;;;;;;;24.58;29.50;98048.78;7393300;19;20014;-82
2024/01/05 01:24:08;;;;;;;7.47;3.35;;;;;;;24.19;29.78;98050.53;7391054;19;20010;-82
2024/01/05 01:26:34;;;;;;;6.47;2.47;;;;;;;24.33;29.60;98042.91;7393129;19;20018;-82
2024/01/05 01:29:00;;;;;;;3.30;2.90;;;;;;;24.33;29.53;98045.75;7394065;19;20046;-82
2024/01/05 01:31:28;;;;;;;6.88;2.35;;;;;;;24.29;29.81;98043.38;7391726;19;19999;-83
2024/01/05 01:33:54;;;;;;;4.97;1.35;;;;;;;24.25;29.55;98048.06;7392147;19;20050;-83
2024/01/05 01:36:20;;;;;;;4.25;2.90;;;;;;;24.26;29.69;98046.69;7390242;19;20018;-82
2024/01/05 01:38:46;;;;;;;7.53;2.63;;;;;;;24.07;29.77;98054.09;7391882;19;20006;-83
2024/01/05 01:41:12;;;;;;;4.03;1.80;;;;;;;24.37;29.99;98051.69;7391083;19;20074;-82
2024/01/05 01:43:46;;;;;;;18.77;3.50;;;;;;;24.95;28.84;98058.22;7391006;19;20024;-82
2024/01/05 01:46:13;;;;;;;1.70;1.52;;;;;;;24.17;29.70;98056.09;7392536;19;20018;-82
2024/01/05 01:48:40;;;;;;;2.05;1.85;;;;;;;25.24;28.78;98055.75;7390742;19;20452;-83
2024/01/05 01:51:06;;;;;;;2.20;1.98;;;;;;;24.67;29.45;98048.66;7390932;19;20026;-82
2024/01/05 01:53:32;;;;;;;2.50;1.98;;;;;;;24.67;29.36;98059.28;7391438;19;20022;-82
2024/01/05 01:55:59;;;;;;;1.33;1.30;;;;;;;24.64;29.65;98054.84;7390451;19;20010;-82
2024/01/05 01:58:26;;;;;;;1.88;1.77;;;;;;;25.13;29.53;98059.34;7392306;19;20053;-82
2024/01/05 02:00:52;;;;;;;6.05;0.85;;;;;;;25.16;30.00;98063.09;7392833;19;20015;-82
2024/01/05 02:03:19;;;;;;;19.85;2.50;;;;;;;26.23;28.99;98061.59;7393076;19;20098;-82
2024/01/05 02:05:47;;;;;;;2.03;1.52;;;;;;;26.62;28.52;98061.63;7391998;19;20010;-82
2024/01/05 02:08:13;;;;;;;5.30;1.33;;;;;;;26.31;29.12;98062.09;7392123;19;20478;-82
2024/01/05 02:10:40;;;;;;;11.27;1.95;;;;;;;26.61;28.62;98068.72;7389601;19;20021;-82
2024/01/05 02:13:07;;;;;;;0.65;0.60;;;;;;;26.78;28.81;98074.75;7391359;19;20007;-82
2024/01/05 02:15:33;;;;;;;19.48;2.60;;;;;;;26.71;29.15;98069.28;7391029;19;20490;-82
2024/01/05 02:17:59;;;;;;;26.23;1.70;;;;;;;27.90;28.21;98073.50;7392090;19;20502;-82
2024/01/05 02:20:25;;;;;;;1.13;0.73;;;;;;;30.06;26.71;98074.97;7390433;19;20052;-82
2024/01/05 02:22:56;;;;;;;6.32;1.83;;;;;;;30.56;26.43;98074.91;7391875;19;20006;-83
2024/01/05 02:25:22;;;;;;;0.75;0.60;;;;;;;30.82;26.29;98077.34;7389760;19;20002;-82
2024/01/05 02:27:48;;;;;;;1.73;1.33;;;;;;;31.09;25.88;98065.44;7392418;19;20011;-82
2024/01/05 02:30:20;;;;;;;19.30;2.58;;;;;;;31.29;25.88;98072.72;7389227;19;20015;-82
2024/01/05 02:32:46;;;;;;;3.40;1.17;;;;;;;31.20;25.86;98076.69;7388900;19;20025;-82
2024/01/05 02:35:12;;;;;;;7.47;3.50;;;;;;;31.15;26.24;98077.91;7390454;19;20021;-82
2024/01/05 02:37:43;;;;;;;0.40;0.40;;;;;;;31.15;25.91;98077.91;7388658;19;20003;-82
2024/01/05 02:40:12;;;;;;;1.50;1.40;;;;;;;31.24;25.94;98087.59;7388726;19;20003;-81
2024/01/05 02:42:39;;;;;;;0.85;0.73;;;;;;;31.34;25.74;98085.06;7390169;19;20037;-81
2024/01/05 02:45:05;;;;;;;4.85;1.10;;;;;;;31.99;25.35;98088.91;7387319;19;20010;-83
2024/01/05 02:47:32;;;;;;;0.95;0.95;;;;;;;31.65;25.31;98086.94;7390099;19;20014;-81
2024/01/05 02:49:58;;;;;;;3.40;1.10;;;;;;;31.64;25.31;98085.47;7389565;19;20082;-84
2024/01/05 02:52:24;;;;;;;8.15;1.48;;;;;;;30.90;26.25;98084.16;7387087;19;20369;-83
2024/01/05 02:54:50;;;;;;;29.38;1.60;;;;;;;28.41;27.99;98088.94;7389222;19;20499;-81
2024/01/05 02:57:16;;;;;;;1.75;0.40;;;;;;;28.16;28.39;98092.00;7387473;19;20094;-83
2024/01/05 02:59:42;;;;;;;12.13;1.77;;;;;;;27.76;28.53;98089.97;7387844;19;20017;-83
2024/01/05 03:02:08;;;;;;;5.28;2.17;;;;;;;28.42;28.55;98084.69;7389624;19;20122;-83
2024/01/05 03:04:34;;;;;;;2.13;1.33;;;;;;;28.03;28.75;98087.06;7389296;19;20014;-83
2024/01/05 03:07:00;;;;;;;3.45;1.05;;;;;;;28.20;28.36;98089.34;7389128;19;20690;-83
2024/01/05 03:09:27;;;;;;;7.57;1.00;;;;;;;28.19;28.69;98087.88;7389967;19;20037;-83
2024/01/05 03:11:53;;;;;;;0.55;0.55;;;;;;;27.83;29.08;98094.59;7390753;19;20371;-82
2024/01/05 03:14:19;;;;;;;2.47;1.52;;;;;;;27.65;29.03;98093.66;7387258;19;20007;-83
2024/01/05 03:16:45;;;;;;;2.42;1.48;;;;;;;29.30;27.59;98087.44;7388320;19;20070;-83
2024/01/05 03:19:11;;;;;;;4.32;1.40;;;;;;;28.74;28.19;98094.13;7389843;19;20038;-83
2024/01/05 03:21:37;;;;;;;6.22;1.92;;;;;;;28.21;28.83;98092.94;7389179;19;20022;-83
2024/01/05 03:24:04;;;;;;;2.63;2.10;;;;;;;28.79;27.80;98089.31;7390621;19;20007;-83
2024/01/05 03:26:30;;;;;;;12.35;2.92;;;;;;;28.52;28.54;98096.63;7390536;19;20014;-83
2024/01/05 03:28:56;;;;;;;10.80;1.85;;;;;;;27.48;29.25;98097.06;7392232;19;20022;-83
2024/01/05 03:31:24;;;;;;;8.38;1.83;;;;;;;27.48;29.02;98094.22;7389451;19;20010;-82
2024/01/05 03:33:51;;;;;;;6.18;0.75;;;;;;;28.01;28.53;98098.41;7392517;19;20496;-83
2024/01/05 03:36:17;;;;;;;12.32;2.50;;;;;;;27.77;28.50;98102.88;7390728;19;20066;-83
2024/01/05 03:38:43;;;;;;;2.70;2.25;;;;;;;28.12;28.51;98100.41;7393233;19;20359;-83
2024/01/05 03:41:09;;;;;;;3.38;1.33;;;;;;;28.00;28.95;98099.81;7394089;19;20006;-83
2024/01/05 03:43:35;;;;;;;10.90;1.90;;;;;;;27.78;29.12;98098.63;7390494;19;20500;-83
2024/01/05 03:46:02;;;;;;;5.15;1.92;;;;;;;28.20;29.07;98095.06;7395280;19;20010;-82
2024/01/05 03:48:28;;;;;;;0.68;0.60;;;;;;;28.28;28.69;98100.47;7400909;19;20010;-82
2024/01/05 03:50:54;;;;;;;4.15;1.73;;;;;;;27.99;29.04;98103.28;7406974;19;20041;-82
2024/01/05 03:53:20;;;;;;;5.80;1.48;;;;;;;27.81;28.69;98105.22;7404092;19;20011;-82
2024/01/05 03:55:46;;;;;;;8.73;0.98;;;;;;;27.68;29.24;98106.69;7404391;19;20002;-82
2024/01/05 03:58:12;;;;;;;2.25;1.67;;;;;;;27.81;29.03;98108.06;7407291;19;20010;-83
2024/01/05 04:00:38;;;;;;;11.68;2.28;;;;;;;27.77;28.51;98106.47;7405985;19;20009;-82
2024/01/05 04:03:04;;;;;;;6.40;1.75;;;;;;;27.81;28.77;98105.94;7411753;19;20006;-82
2024/01/05 04:05:30;;;;;;;1.13;1.02;;;;;;;27.74;28.85;98101.28;7414353;19;20063;-82
2024/01/05 04:07:56;;;;;;;13.70;2.97;;;;;;;28.07;28.48;98110.16;7416500;19;19998;-82
2024/01/05 04:10:22;;;;;;;4.05;1.52;;;;;;;28.12;28.28;98111.09;7408259;19;20026;-83
2024/01/05 04:12:49;;;;;;;6.80;3.13;;;;;;;27.81;28.50;98094.47;7395783;19;20009;-83
2024/01/05 04:15:15;;;;;;;11.45;2.17;;;;;;;27.83;28.79;98094.59;7394789;19;20356;-83
2024/01/05 04:17:41;;;;;;;4.05;2.20;;;;;;;27.85;28.41;98097.56;7395076;19;20454;-83
2024/01/05 04:20:08;;;;;;;2.25;1.20;;;;;;;27.71;28.50;98102.56;7396301;19;20384;-82
2024/01/05 04:22:35;;;;;;;4.18;1.88;;;;;;;27.77;28.48;98106.47;7394801;19;20370;-83
2024/01/05 04:25:01;;;;;;;1.38;1.27;;;;;;;27.97;27.92;98106.78;7394379;19;20048;-82
2024/01/05 04:27:27;;;;;;;1.50;1.25;;;;;;;27.86;28.53;98101.91;7392272;19;20083;-81
2024/01/05 04:29:53;;;;;;;1.75;1.17;;;;;;;27.74;28.32;98107.75;7393149;19;20019;-81
2024/01/05 04:32:19;;;;;;;4.63;1.42;;;;;;;27.78;28.47;98107.22;7393353;19;20006;-81
2024/01/05 04:34:45;;;;;;;1.23;1.13;;;;;;;27.94;28.19;98110.88;7393436;19;20508;-81
2024/01/05 04:37:11;;;;;;;3.30;0.85;;;;;;;27.97;28.20;98118.25;7394914;19;20007;-81
2024/01/05 04:39:38;;;;;;;8.13;0.90;;;;;;;27.70;28.57;98118.97;7392104;19;20096;-81
2024/01/05 04:42:04;;;;;;;4.28;1.75;;;;;;;27.52;29.03;98118.03;7394818;19;20475;-79
2024/01/05 04:44:30;;;;;;;10.98;2.65;;;;;;;27.09;29.70;98117.13;7390684;19;20015;-79
2024/01/05 04:46:56;;;;;;;1.92;1.00;;;;;;;27.20;29.51;98112.69;7394196;19;20002;-80
2024/01/05 04:49:23;;;;;;;6.30;2.58;;;;;;;27.35;29.12;98107.13;7392544;19;20082;-79
2024/01/05 04:51:49;;;;;;;8.20;2.05;;;;;;;27.31;28.75;98106.88;7393783;19;20018;-79
2024/01/05 04:54:15;;;;;;;3.78;2.80;;;;;;;27.34;29.20;98116.31;7394999;19;20010;-79
2024/01/05 04:56:41;;;;;;;23.42;1.67;;;;;;;27.43;28.98;98110.41;7393543;19;20010;-79
2024/01/05 04:59:07;;;;;;;2.55;1.02;;;;;;;27.56;28.85;98114.66;7393429;19;20013;-79
2024/01/05 05:01:34;;;;;;;3.80;1.75;;;;;;;27.88;28.31;98122.03;7392618;19;20011;-79
2024/01/05 05:04:00;;;;;;;5.93;2.08;;;;;;;27.36;29.27;98125.00;7395012;19;20014;-79
2024/01/05 05:06:27;;;;;;;3.72;2.63;;;;;;;27.20;29.35;98130.56;7392615;19;20023;-79
2024/01/05 05:08:53;;;;;;;4.20;1.25;;;;;;;27.23;29.48;98120.75;7393158;19;20021;-79
2024/01/05 05:11:20;;;;;;;15.73;2.42;;;;;;;27.26;29.42;98133.03;7390305;19;20024;-79
2024/01/05 05:13:46;;;;;;;4.35;1.98;;;;;;;27.75;29.15;98131.38;7389561;19;20099;-79
2024/01/05 05:16:12;;;;;;;6.10;1.60;;;;;;;27.75;28.87;98134.22;7392708;19;20364;-79
2024/01/05 05:18:38;;;;;;;7.82;2.75;;;;;;;27.69;28.96;98128.94;7392908;19;20014;-79
2024/01/05 05:21:05;;;;;;;1.92;1.83;;;;;;;27.64;29.17;98123.66;7393427;19;20023;-79
2024/01/05 05:23:31;;;;;;;3.88;0.95;;;;;;;27.57;29.57;98133.31;7392163;19;20014;-79
2024/01/05 05:25:57;;;;;;;9.70;2.55;;;;;;;27.18;29.56;98138.31;7391710;19;20003;-79
2024/01/05 05:28:23;;;;;;;4.35;2.67;;;;;;;27.29;29.96;98137.50;7389880;19;20038;-79
2024/01/05 05:30:50;;;;;;;4.15;2.60;;;;;;;27.31;30.14;98141.19;7390137;19;20018;-79
2024/01/05 05:33:16;;;;;;;5.93;2.13;;;;;;;27.77;29.48;98134.34;7392001;19;20118;-81
2024/01/05 05:35:42;;;;;;;8.52;2.90;;;;;;;27.79;29.16;98143.03;7390027;19;20007;-79
2024/01/05 05:38:08;;;;;;;3.70;3.38;;;;;;;27.62;29.46;98149.28;7389796;19;20022;-79
2024/01/05 05:40:34;;;;;;;31.95;2.97;;;;;;;27.82;29.55;98146.75;7391890;19;20014;-79
2024/01/05 05:43:00;;;;;;;7.57;2.25;;;;;;;28.42;29.28;98155.56;7390897;19;20010;-79
2024/01/05 05:45:27;;;;;;;1.88;1.73;;;;;;;28.49;28.98;98146.63;7391315;19;20015;-79
2024/01/05 05:47:53;;;;;;;3.80;2.08;;;;;;;28.73;29.04;98154.94;7391544;19;20015;-79
2024/01/05 05:50:19;;;;;;;1.33;1.10;;;;;;;28.95;29.23;98156.75;7389961;19;20476;-79
2024/01/05 05:52:47;;;;;;;6.22;3.22;;;;;;;28.76;29.24;98153.66;7392427;19;20015;-80
2024/01/05 05:55:13;;;;;;;6.70;2.85;;;;;;;29.05;29.46;98162.22;7390592;19;20719;-80
2024/01/05 05:57:42;;;;;;;7.70;1.98;;;;;;;29.21;28.99;98158.03;7389631;19;20407;-79
2024/01/05 06:00:10;;;;;;;4.55;1.92;;;;;;;29.37;28.58;98163.03;7391302;19;20014;-80
2024/01/05 06:02:40;;;;;;;4.32;1.88;;;;;;;29.21;29.07;98168.75;7389149;19;20023;-80
2024/01/05 06:05:07;;;;;;;5.65;1.90;;;;;;;29.06;29.16;98160.84;7390234;19;20014;-80
2024/01/05 06:07:33;;;;;;;13.70;1.60;;;;;;;28.88;29.05;98172.19;7388657;19;20022;-81
2024/01/05 06:09:59;;;;;;;9.63;3.30;;;;;;;28.90;29.33;98162.94;7390381;19;20018;-80
2024/01/05 06:12:25;;;;;;;10.50;2.63;;;;;;;29.04;28.88;98166.47;7390341;19;20377;-81
2024/01/05 06:14:51;;;;;;;7.60;2.75;;;;;;;29.23;29.33;98163.09;7390359;19;20082;-81
2024/01/05 06:17:18;;;;;;;6.25;2.88;;;;;;;29.22;29.24;98164.47;7390033;19;20015;-80
2024/01/05 06:19:44;;;;;;;1.70;1.23;;;;;;;28.86;29.45;98174.94;7389530;19;20007;-80
2024/01/05 06:22:10;;;;;;;3.10;1.45;;;;;;;28.76;29.40;98179.47;7390897;19;20468;-80
2024/01/05 06:24:37;;;;;;;2.67;1.38;;;;;;;28.90;29.81;98180.88;7387654;19;21439;-80
2024/01/05 06:27:03;;;;;;;2.53;1.10;;;;;;;29.04;29.53;98183.69;7391237;19;19998;-80
2024/01/05 06:29:29;;;;;;;3.85;3.17;;;;;;;28.99;29.71;98193.47;7387885;19;20055;-80
2024/01/05 06:31:55;;;;;;;2.80;0.88;;;;;;;28.98;29.65;98186.25;7389623;19;20546;-80
2024/01/05 06:34:21;;;;;;;9.45;1.27;;;;;;;29.01;29.41;98185.72;7390031;19;20432;-80
2024/01/05 06:36:48;;;;;;;7.90;1.70;;;;;;;28.69;29.86;98192.00;7390711;19;20022;-81
2024/01/05 06:39:14;;;;;;;0.95;0.77;;;;;;;28.65;29.93;98194.66;7389259;19;20021;-81
2024/01/05 06:41:40;;;;;;;4.25;1.52;;;;;;;28.51;29.95;98194.69;7387891;19;20006;-81
2024/01/05 06:44:06;;;;;;;5.63;2.50;;;;;;;28.53;30.02;98195.53;7387081;19;20034;-81
2024/01/05 06:46:32;;;;;;;3.72;0.82;;;;;;;28.32;29.84;98207.34;7387653;19;20018;-80
2024/01/05 06:48:58;;;;;;;2.38;1.70;;;;;;;28.35;30.20;98203.19;7390232;19;20467;-81
2024/01/05 06:51:29;;;;;;;2.13;1.35;;;;;;;28.45;29.95;98212.31;7389187;19;20474;-80
2024/01/05 06:53:57;;;;;;;8.77;2.13;;;;;;;28.35;30.38;98208.19;7390077;19;19999;-80
2024/01/05 06:56:24;;;;;;;5.18;1.95;;;;;;;28.61;29.99;98217.41;7388252;19;20023;-80
2024/01/05 06:58:51;;;;;;;16.83;3.00;;;;;;;28.06;30.60;98214.59;7389811;19;20397;-81
2024/01/05 07:01:17;;;;;;;13.13;2.45;;;;;;;28.54;30.09;98213.47;7389062;19;20017;-81
2024/01/05 07:03:43;;;;;;;6.30;1.55;;;;;;;28.10;30.67;98217.66;7386800;19;20021;-81
2024/01/05 07:06:11;;;;;;;1.85;0.95;;;;;;;28.11;30.63;98219.13;7384880;19;20014;-80
2024/01/05 07:08:37;;;;;;;8.13;1.40;;;;;;;27.91;30.95;98229.53;7383231;19;20509;-80
2024/01/05 07:11:03;;;;;;;8.82;1.25;;;;;;;28.12;30.84;98223.50;7387061;19;20621;-80
2024/01/05 07:13:29;;;;;;;8.90;1.50;;;;;;;28.08;30.44;98226.16;7384770;19;20013;-81
2024/01/05 07:15:55;;;;;;;4.88;2.15;;;;;;;28.02;30.94;98230.81;7383658;19;20019;-80
2024/01/05 07:18:21;;;;;;;10.52;1.48;;;;;;;28.20;30.42;98226.75;7381361;19;20035;-81
2024/01/05 07:20:48;;;;;;;0.88;0.73;;;;;;;28.63;29.68;98228.94;7386227;19;20010;-81
2024/01/05 07:23:14;;;;;;;2.72;1.88;;;;;;;28.49;29.73;98235.44;7387252;19;19998;-81
2024/01/05 07:25:40;;;;;;;3.25;1.08;;;;;;;28.71;29.77;98243.69;7385400;19;20014;-82
2024/01/05 07:28:06;;;;;;;3.53;1.02;;;;;;;28.67;30.22;98252.06;7388511;19;20021;-82
2024/01/05 07:30:32;;;;;;;4.80;2.28;;;;;;;28.68;29.98;98244.94;7388761;19;20477;-81
2024/01/05 07:32:58;;;;;;;2.75;1.33;;;;;;;28.74;30.04;98253.88;7388128;19;19999;-82
2024/01/05 07:35:24;;;;;;;1.00;0.60;;;;;;;28.83;30.31;98261.47;7388814;19;20002;-82
2024/01/05 07:37:50;;;;;;;2.53;2.33;;;;;;;28.78;30.22;98259.78;7388766;19;20017;-82
2024/01/05 07:40:17;;;;;;;2.20;1.35;;;;;;;28.84;29.80;98275.16;7388306;19;20010;-83
2024/01/05 07:42:43;;;;;;;4.63;1.02;;;;;;;28.68;30.28;98273.59;7389306;19;20024;-82
2024/01/05 07:45:09;;;;;;;1.40;0.93;;;;;;;28.76;29.84;98279.75;7386424;19;20018;-82
2024/01/05 07:47:35;;;;;;;3.33;1.75;;;;;;;28.56;30.35;98278.69;7384212;19;20006;-82
2024/01/05 07:50:02;;;;;;;3.08;0.90;;;;;;;28.79;30.32;98279.22;7385459;19;20014;-82
2024/01/05 07:52:28;;;;;;;7.25;1.65;;;;;;;29.04;30.05;98286.88;7385004;19;20014;-82
2024/01/05 07:54:55;;;;;;;14.77;3.00;;;;;;;29.11;30.16;98291.50;7382752;19;20014;-83
2024/01/05 07:57:21;;;;;;;7.53;2.40;;;;;;;28.92;30.29;98292.75;7383543;19;20007;-85
2024/01/05 07:59:47;;;;;;;19.02;1.90;;;;;;;28.74;30.61;98296.84;7382419;19;20014;-82
2024/01/05 08:02:13;;;;;;;4.10;2.47;;;;;;;28.91;30.36;98302.00;7386510;19;20015;-82
2024/01/05 08:04:40;;;;;;;7.03;2.42;;;;;;;28.73;30.40;98298.97;7385090;19;20455;-82
2024/01/05 08:07:06;;;;;;;1.98;1.52;;;;;;;28.99;30.44;98305.28;7387130;19;20002;-82
2024/01/05 08:09:32;;;;;;;4.05;1.05;;;;;;;29.16;29.92;98304.72;7387680;19;20020;-82
2024/01/05 08:11:58;;;;;;;1.42;1.20;;;;;;;29.93;29.33;98314.88;7386470;19;20022;-82
2024/01/05 08:14:25;;;;;;;3.83;2.17;;;;;;;29.51;30.04;98321.44;7385421;19;20039;-81
2024/01/05 08:16:51;;;;;;;2.15;1.05;;;;;;;29.26;29.98;98318.81;7386586;19;20011;-82
2024/01/05 08:19:17;;;;;;;2.95;0.93;;;;;;;29.42;30.02;98316.72;7387293;19;20007;-82
2024/01/05 08:21:43;;;;;;;3.03;1.85;;;;;;;29.00;30.14;98321.09;7388153;19;20010;-81
2024/01/05 08:24:09;;;;;;;1.80;1.70;;;;;;;29.88;29.85;98319.69;7387774;19;20018;-82
2024/01/05 08:26:37;;;;;;;2.05;1.30;;;;;;;29.44;30.26;98329.03;7385948;19;20074;-81
2024/01/05 08:29:03;;;;;;;19.33;2.55;;;;;;;29.39;29.74;98333.06;7387237;19;20014;-83
2024/01/05 08:31:29;;;;;;;2.15;1.05;;;;;;;29.02;30.20;98332.66;7384734;19;20058;-83
2024/01/05 08:33:55;;;;;;;4.13;1.23;;;;;;;29.14;30.25;98339.00;7385412;19;20378;-83
2024/01/05 08:36:21;;;;;;;10.93;1.65;;;;;;;29.28;30.50;98344.72;7384397;19;20034;-83
2024/01/05 08:38:47;;;;;;;1.55;0.88;;;;;;;29.61;30.28;98342.00;7386153;19;20018;-83
2024/01/05 08:41:13;;;;;;;3.70;1.40;;;;;;;29.70;30.31;98350.38;7385925;19;20018;-86
2024/01/05 08:43:43;;;;;;;6.13;1.38;;;;;;;29.46;29.89;98354.94;7383793;19;20010;-85
2024/01/05 08:46:10;;;;;;;3.15;1.75;;;;;;;29.59;30.05;98344.78;7383885;19;20014;-85
2024/01/05 08:48:39;;;;;;;15.43;3.30;;;;;;;29.74;30.04;98347.72;7382722;19;20033;-85
2024/01/05 08:51:05;;;;;;;2.30;0.60;;;;;;;29.66;29.80;98355.16;7389658;19;20023;-85
2024/01/05 08:53:31;;;;;;;4.05;1.77;;;;;;;29.57;30.37;98359.03;7389941;19;20088;-85
2024/01/05 08:55:58;;;;;;;3.30;1.75;;;;;;;29.98;29.89;98354.59;7390329;19;20015;-85
2024/01/05 08:58:24;;;;;;;7.78;1.95;;;;;;;30.16;29.90;98359.69;7389694;19;20468;-84
2024/01/05 09:00:50;;;;;;;1.20;1.10;;;;;;;29.91;29.59;98364.31;7392787;19;20458;-85
2024/01/05 09:03:16;;;;;;;2.72;1.23;;;;;;;29.89;29.81;98369.22;7395345;19;20014;-85
2024/01/05 09:05:42;;;;;;;4.63;1.55;;;;;;;29.38;30.32;98377.50;7391137;19;20006;-86
2024/01/05 09:08:08;;;;;;;5.63;1.58;;;;;;;29.47;30.46;98373.66;7394608;19;20037;-84
2024/01/05 09:10:34;;;;;;;2.65;1.58;;;;;;;29.12;30.58;98384.78;7397547;19;20010;-85
2024/01/05 09:13:01;;;;;;;0.98;0.98;;;;;;;28.93;30.68;98385.97;7402060;19;20003;-86
2024/01/05 09:15:27;;;;;;;7.07;1.45;;;;;;;28.94;31.09;98383.84;7395272;19;20469;-86
2024/01/05 09:17:53;;;;;;;4.30;2.03;;;;;;;28.85;30.91;98381.94;7395215;19;20410;-86
2024/01/05 09:20:19;;;;;;;6.03;1.15;;;;;;;29.14;30.87;98387.72;7392370;19;20021;-82
2024/01/05 09:22:45;;;;;;;2.25;1.38;;;;;;;29.59;30.22;98391.44;7395001;19;20382;-87
2024/01/05 09:25:12;;;;;;;6.80;1.88;;;;;;;29.79;30.10;98397.44;7394823;19;20010;-87
2024/01/05 09:27:38;;;;;;;4.95;0.88;;;;;;;29.73;30.27;98389.28;7394713;19;20340;-86
2024/01/05 09:30:06;;;;;;;4.32;2.10;;;;;;;29.88;30.37;98400.06;7393448;19;20031;-85
2024/01/05 09:32:32;;;;;;;5.03;2.15;;;;;;;29.88;30.14;98405.81;7393889;19;20024;-86
2024/01/05 09:34:58;;;;;;;3.92;1.25;;;;;;;29.95;30.79;98409.72;7391101;19;20003;-83
2024/01/05 09:37:24;;;;;;;2.47;1.52;;;;;;;30.06;30.44;98413.78;7391448;19;20011;-87
2024/01/05 09:39:52;;;;;;;3.53;2.08;;;;;;;30.01;30.51;98415.72;7392443;19;20033;-83
2024/01/05 09:42:18;;;;;;;6.45;1.40;;;;;;;30.19;30.38;98422.31;7393420;19;20380;-84
2024/01/05 09:44:46;;;;;;;6.60;2.55;;;;;;;29.86;30.63;98420.06;7389595;19;20002;-82
2024/01/05 09:47:14;;;;;;;1.75;1.65;;;;;;;30.12;30.57;98425.56;7391316;19;20002;-81
2024/01/05 09:49:44;;;;;;;10.07;2.03;;;;;;;29.83;30.51;98429.97;7391563;19;20006;-83
2024/01/05 09:52:15;;;;;;;1.58;0.93;;;;;;;34.32;27.12;98436.34;7390360;19;20015;-82
2024/01/05 09:54:42;;;;;;;1.50;1.17;;;;;;;36.52;25.43;98426.94;7389626;19;20010;-83
2024/01/05 09:57:15;;;;;;;1.60;1.00;;;;;;;37.03;24.92;98438.16;7390186;19;20022;-83
2024/01/05 09:59:44;;;;;;;1.73;1.00;;;;;;;37.51;24.50;98441.25;7388439;19;20003;-82
2024/01/05 10:02:15;;;;;;;1.67;0.60;;;;;;;38.13;23.83;98433.53;7390215;19;20014;-82
2024/01/05 10:04:42;;;;;;;3.25;1.40;;;;;;;38.60;23.94;98435.66;7389486;19;20011;-82
2024/01/05 10:07:08;;;;;;;1.40;0.90;;;;;;;38.69;23.90;98436.53;7390861;19;20094;-86
2024/01/05 10:09:48;;;;;;;3.15;2.22;;;;;;;38.68;23.78;98440.88;7391493;19;20026;-88
2024/01/05 10:12:15;;;;;;;1.83;0.75;;;;;;;38.67;23.29;98445.22;7391332;19;20002;-87
2024/01/05 10:14:41;;;;;;;9.40;0.90;;;;;;;38.65;23.30;98448.84;7392110;19;20037;-88
2024/01/05 10:17:08;;;;;;;2.40;0.68;;;;;;;38.73;23.34;98447.47;7391772;19;20044;-84
2024/01/05 10:19:35;;;;;;;4.65;1.17;;;;;;;38.66;23.25;98450.28;7391574;19;20015;-84
2024/01/05 10:22:09;;;;;;;2.00;1.65;;;;;;;38.63;22.99;98462.63;7392143;19;20014;-85
2024/01/05 10:24:35;;;;;;;1.13;0.75;;;;;;;38.37;23.50;98468.84;7388500;19;20484;-85
2024/01/05 10:27:07;;;;;;;6.28;1.70;;;;;;;38.37;23.42;98465.91;7390463;19;20021;-85
2024/01/05 10:29:36;;;;;;;;;;;;;;;38.36;23.13;98470.25;7390109;19;20032;-84
2024/01/05 10:32:18;;;;;;;7.18;2.08;;;;;;;38.11;23.51;98474.22;7389931;19;19991;-83
2024/01/05 10:34:49;;;;;;;2.33;1.35;;;;;;;38.12;23.58;98474.97;7391111;19;20034;-84
2024/01/05 10:37:17;;;;;;;4.47;1.75;;;;;;;38.12;23.05;98472.78;7390123;19;20018;-85
2024/01/05 10:39:54;;;;;;;10.68;1.20;;;;;;;38.76;23.06;98475.19;7391143;19;20463;-86
2024/01/05 10:42:28;;;;;;;5.80;2.40;;;;;;;38.08;23.01;98478.53;7391356;19;20006;-84
2024/01/05 10:44:58;;;;;;;1.48;1.02;;;;;;;37.21;23.30;98485.69;7390786;19;20368;-86
2024/01/05 10:47:29;;;;;;;3.60;1.17;;;;;;;34.51;25.17;98486.81;7389789;19;20037;-85
2024/01/05 10:49:55;;;;;;;1.55;1.45;;;;;;;37.56;23.59;98492.16;7389026;19;20021;-86
2024/01/05 10:52:23;;;;;;;5.25;1.23;;;;;;;36.83;23.79;98490.69;7389584;19;20264;-86
2024/01/05 10:54:52;;;;;;;8.50;1.45;;;;;;;36.74;23.52;98494.84;7387820;19;20006;-88
2024/01/05 10:57:20;;;;;;;2.75;0.70;;;;;;;36.66;23.94;98500.50;7387078;19;20019;-83
2024/01/05 10:59:50;;;;;;;7.32;1.42;;;;;;;34.88;25.44;98500.94;7388248;19;20342;-85
2024/01/05 11:02:21;;;;;;;0.45;0.38;;;;;;;34.21;25.71;98500.28;7389284;19;20009;-85
2024/01/05 11:04:56;;;;;;;5.85;1.13;;;;;;;33.61;26.28;98499.03;7388943;19;20006;-87
2024/01/05 11:07:24;;;;;;;1.05;0.75;;;;;;;34.21;26.00;98508.97;7386840;19;20035;-86
2024/01/05 11:09:56;;;;;;;8.40;2.45;;;;;;;34.73;25.87;98495.41;7387493;19;19998;-87
2024/01/05 11:12:40;;;;;;;2.03;1.35;;;;;;;33.34;26.65;98499.47;7389029;19;20007;-89
2024/01/05 11:15:38;;;;;;;9.93;1.85;;;;;;;33.56;26.44;98497.41;7392087;19;20030;-96
2024/01/05 11:18:48;;;;;;;1.90;0.85;;;;;;;37.60;23.70;98492.25;7388656;19;20011;-83
2024/01/05 11:21:25;;;;;;;8.48;1.33;;;;;;;37.55;23.74;98491.44;7389614;19;20022;-82
2024/01/05 11:23:55;;;;;;;5.18;2.28;;;;;;;37.72;23.80;98492.44;7388156;19;20094;-84
2024/01/05 11:26:32;;;;;;;3.13;1.38;;;;;;;37.98;23.30;98490.00;7387119;19;20014;-84
2024/01/05 11:28:58;;;;;;;2.50;1.38;;;;;;;35.10;25.34;98495.06;7387797;19;20033;-84
2024/01/05 11:31:46;;;;;;;11.25;1.48;;;;;;;34.35;25.55;98504.38;7385535;19;20003;-84
2024/01/05 11:34:35;;;;;;;1.85;1.70;;;;;;;31.21;27.79;98501.03;7383880;19;20022;-82